sensor_id;sensor_type;location;lat;lon;timestamp;temperature;humidity
6110;DHT22;3085;49.444;11.054;2023-01-26T00:00:04;1.70;99.90
6110;DHT22;3085;49.444;11.054;2023-01-26T00:02:31;1.80;99.90
6110;DHT22;3085;49.444;11.054;2023-01-26T00:04:58;1.70;99.90
6110;DHT22;3085;49.444;11.054;2023-01-26T00:07:25;1.60;99.90
6110;DHT22;3085;49.444;11.054;2023-01-26T00:09:53;1.50;99.90
6110;DHT22;3085;49.444;11.054;2023-01-26T00:12:22;1.20;99.90
6110;DHT22;3085;49.444;11.054;2023-01-26T00:14:48;1.30;99.90
6110;DHT22;3085;49.444;11.054;2023-01-26T00:17:17;1.30;99.90
6110;DHT22;3085;49.444;11.054;2023-01-26T00:19:54;1.40;99.90
6110;DHT22;3085;49.444;11.054;2023-01-26T00:22:25;1.40;99.90
6110;DHT22;3085;49.444;11.054;2023-01-26T00:24:52;1.40;99.90
6110;DHT22;3085;49.444;11.054;2023-01-26T00:27:19;1.50;99.90
6110;DHT22;3085;49.444;11.054;2023-01-26T00:29:47;1.50;99.90
6110;DHT22;3085;49.444;11.054;2023-01-26T00:32:14;1.50;99.90
6110;DHT22;3085;49.444;11.054;2023-01-26T00:34:41;1.60;99.90
6110;DHT22;3085;49.444;11.054;2023-01-26T00:37:08;1.80;99.90
6110;DHT22;3085;49.444;11.054;2023-01-26T00:39:34;1.60;99.90
6110;DHT22;3085;49.444;11.054;2023-01-26T00:42:01;1.60;99.90
6110;DHT22;3085;49.444;11.054;2023-01-26T00:44:39;1.70;99.90
6110;DHT22;3085;49.444;11.054;2023-01-26T00:47:09;1.50;99.90
6110;DHT22;3085;49.444;11.054;2023-01-26T00:49:36;1.30;99.90
6110;DHT22;3085;49.444;11.054;2023-01-26T00:52:04;1.30;99.90
6110;DHT22;3085;49.444;11.054;2023-01-26T00:54:31;1.40;99.90
6110;DHT22;3085;49.444;11.054;2023-01-26T00:56:57;1.40;99.90
6110;DHT22;3085;49.444;11.054;2023-01-26T00:59:24;1.40;99.90
6110;DHT22;3085;49.444;11.054;2023-01-26T01:01:51;1.40;99.90
6110;DHT22;3085;49.444;11.054;2023-01-26T01:04:20;1.40;99.90
6110;DHT22;3085;49.444;11.054;2023-01-26T01:06:46;1.40;99.90
6110;DHT22;3085;49.444;11.054;2023-01-26T01:09:13;1.40;99.90
6110;DHT22;3085;49.444;11.054;2023-01-26T01:11:40;1.50;99.90
6110;DHT22;3085;49.444;11.054;2023-01-26T01:14:08;1.40;99.90
6110;DHT22;3085;49.444;11.054;2023-01-26T01:16:35;1.40;99.90
6110;DHT22;3085;49.444;11.054;2023-01-26T01:19:01;1.40;99.90
6110;DHT22;3085;49.444;11.054;2023-01-26T01:21:30;1.40;99.90
6110;DHT22;3085;49.444;11.054;2023-01-26T01:23:57;1.30;99.90
6110;DHT22;3085;49.444;11.054;2023-01-26T01:26:24;1.30;99.90
6110;DHT22;3085;49.444;11.054;2023-01-26T01:28:52;1.30;99.90
6110;DHT22;3085;49.444;11.054;2023-01-26T01:31:19;1.30;99.90
6110;DHT22;3085;49.444;11.054;2023-01-26T01:33:46;1.30;99.90
6110;DHT22;3085;49.444;11.054;2023-01-26T01:36:14;1.30;99.90
6110;DHT22;3085;49.444;11.054;2023-01-26T01:38:44;1.30;99.90
6110;DHT22;3085;49.444;11.054;2023-01-26T01:41:11;1.30;99.90
6110;DHT22;3085;49.444;11.054;2023-01-26T01:43:38;1.20;99.90
6110;DHT22;3085;49.444;11.054;2023-01-26T01:46:08;1.20;99.90
6110;DHT22;3085;49.444;11.054;2023-01-26T01:48:41;1.30;99.90
6110;DHT22;3085;49.444;11.054;2023-01-26T01:51:13;1.30;99.90
6110;DHT22;3085;49.444;11.054;2023-01-26T01:53:46;1.20;99.90
6110;DHT22;3085;49.444;11.054;2023-01-26T01:56:16;1.20;99.90
6110;DHT22;3085;49.444;11.054;2023-01-26T01:58:47;1.30;99.90
6110;DHT22;3085;49.444;11.054;2023-01-26T02:01:15;1.10;99.90
6110;DHT22;3085;49.444;11.054;2023-01-26T02:03:44;1.10;99.90
6110;DHT22;3085;49.444;11.054;2023-01-26T02:06:13;1.10;99.90
6110;DHT22;3085;49.444;11.054;2023-01-26T02:08:46;1.10;99.90
6110;DHT22;3085;49.444;11.054;2023-01-26T02:11:16;1.10;99.90
6110;DHT22;3085;49.444;11.054;2023-01-26T02:13:46;0.90;99.90
6110;DHT22;3085;49.444;11.054;2023-01-26T02:16:14;0.80;99.90
6110;DHT22;3085;49.444;11.054;2023-01-26T02:18:41;0.80;99.90
6110;DHT22;3085;49.444;11.054;2023-01-26T02:21:11;0.80;99.90
6110;DHT22;3085;49.444;11.054;2023-01-26T02:23:51;0.90;99.90
6110;DHT22;3085;49.444;11.054;2023-01-26T02:26:23;0.90;99.90
6110;DHT22;3085;49.444;11.054;2023-01-26T02:28:50;0.90;99.90
6110;DHT22;3085;49.444;11.054;2023-01-26T02:31:17;0.90;99.90
6110;DHT22;3085;49.444;11.054;2023-01-26T02:33:45;0.90;99.90
6110;DHT22;3085;49.444;11.054;2023-01-26T02:36:19;0.90;99.90
6110;DHT22;3085;49.444;11.054;2023-01-26T02:38:52;1.00;99.90
6110;DHT22;3085;49.444;11.054;2023-01-26T02:41:22;1.00;99.90
6110;DHT22;3085;49.444;11.054;2023-01-26T02:44:09;1.00;99.90
6110;DHT22;3085;49.444;11.054;2023-01-26T02:46:36;1.10;99.90
6110;DHT22;3085;49.444;11.054;2023-01-26T02:49:03;1.10;99.90
6110;DHT22;3085;49.444;11.054;2023-01-26T02:51:47;1.10;99.90
6110;DHT22;3085;49.444;11.054;2023-01-26T02:54:13;1.10;99.90
6110;DHT22;3085;49.444;11.054;2023-01-26T02:57:07;1.10;99.90
6110;DHT22;3085;49.444;11.054;2023-01-26T02:59:33;1.10;99.90
6110;DHT22;3085;49.444;11.054;2023-01-26T03:02:00;1.10;99.90
6110;DHT22;3085;49.444;11.054;2023-01-26T03:04:26;1.10;99.90
6110;DHT22;3085;49.444;11.054;2023-01-26T03:06:53;1.00;99.90
6110;DHT22;3085;49.444;11.054;2023-01-26T03:09:20;1.00;99.90
6110;DHT22;3085;49.444;11.054;2023-01-26T03:11:46;1.00;99.90
6110;DHT22;3085;49.444;11.054;2023-01-26T03:14:15;0.90;99.90
6110;DHT22;3085;49.444;11.054;2023-01-26T03:16:42;0.90;99.90
6110;DHT22;3085;49.444;11.054;2023-01-26T03:19:11;0.90;99.90
6110;DHT22;3085;49.444;11.054;2023-01-26T03:21:55;0.90;99.90
6110;DHT22;3085;49.444;11.054;2023-01-26T03:24:39;0.90;99.90
6110;DHT22;3085;49.444;11.054;2023-01-26T03:27:23;1.00;99.90
6110;DHT22;3085;49.444;11.054;2023-01-26T03:29:55;0.90;99.90
6110;DHT22;3085;49.444;11.054;2023-01-26T03:32:23;0.90;99.90
6110;DHT22;3085;49.444;11.054;2023-01-26T03:34:50;1.00;99.90
6110;DHT22;3085;49.444;11.054;2023-01-26T03:37:16;0.90;99.90
6110;DHT22;3085;49.444;11.054;2023-01-26T03:39:48;0.90;99.90
6110;DHT22;3085;49.444;11.054;2023-01-26T03:42:32;0.80;99.90
6110;DHT22;3085;49.444;11.054;2023-01-26T03:45:18;0.80;99.90
6110;DHT22;3085;49.444;11.054;2023-01-26T03:48:04;1.20;99.90
6110;DHT22;3085;49.444;11.054;2023-01-26T03:50:49;0.70;99.90
6110;DHT22;3085;49.444;11.054;2023-01-26T03:53:33;0.70;99.90
6110;DHT22;3085;49.444;11.054;2023-01-26T03:56:17;0.70;99.90
6110;DHT22;3085;49.444;11.054;2023-01-26T03:58:48;0.70;99.90
6110;DHT22;3085;49.444;11.054;2023-01-26T04:01:17;1.80;99.90
6110;DHT22;3085;49.444;11.054;2023-01-26T04:03:47;0.70;99.90
6110;DHT22;3085;49.444;11.054;2023-01-26T04:06:32;0.70;99.90
6110;DHT22;3085;49.444;11.054;2023-01-26T04:09:17;0.80;99.90
6110;DHT22;3085;49.444;11.054;2023-01-26T04:11:44;0.80;99.90
6110;DHT22;3085;49.444;11.054;2023-01-26T04:14:11;0.80;99.90
6110;DHT22;3085;49.444;11.054;2023-01-26T04:16:57;0.80;99.90
6110;DHT22;3085;49.444;11.054;2023-01-26T04:19:42;0.80;99.90
6110;DHT22;3085;49.444;11.054;2023-01-26T04:22:26;0.80;99.90
6110;DHT22;3085;49.444;11.054;2023-01-26T04:24:53;0.70;99.90
6110;DHT22;3085;49.444;11.054;2023-01-26T04:27:20;0.90;99.90
6110;DHT22;3085;49.444;11.054;2023-01-26T04:29:46;0.80;99.90
6110;DHT22;3085;49.444;11.054;2023-01-26T04:32:15;0.60;99.90
6110;DHT22;3085;49.444;11.054;2023-01-26T04:34:41;0.60;99.90
6110;DHT22;3085;49.444;11.054;2023-01-26T04:37:08;0.60;99.90
6110;DHT22;3085;49.444;11.054;2023-01-26T04:39:35;0.60;99.90
6110;DHT22;3085;49.444;11.054;2023-01-26T04:42:02;0.60;99.90
6110;DHT22;3085;49.444;11.054;2023-01-26T04:44:28;0.70;99.90
6110;DHT22;3085;49.444;11.054;2023-01-26T04:46:55;0.80;99.90
6110;DHT22;3085;49.444;11.054;2023-01-26T04:49:23;0.80;99.90
6110;DHT22;3085;49.444;11.054;2023-01-26T04:51:50;0.90;99.90
6110;DHT22;3085;49.444;11.054;2023-01-26T04:54:17;0.90;99.90
6110;DHT22;3085;49.444;11.054;2023-01-26T04:56:44;0.90;99.90
6110;DHT22;3085;49.444;11.054;2023-01-26T04:59:11;0.90;99.90
6110;DHT22;3085;49.444;11.054;2023-01-26T05:01:39;0.80;99.90
6110;DHT22;3085;49.444;11.054;2023-01-26T05:04:06;0.70;99.90
6110;DHT22;3085;49.444;11.054;2023-01-26T05:06:34;0.70;99.90
6110;DHT22;3085;49.444;11.054;2023-01-26T05:09:02;0.70;99.90
6110;DHT22;3085;49.444;11.054;2023-01-26T05:11:29;0.70;99.90
6110;DHT22;3085;49.444;11.054;2023-01-26T05:13:56;0.70;99.90
6110;DHT22;3085;49.444;11.054;2023-01-26T05:16:23;0.60;99.90
6110;DHT22;3085;49.444;11.054;2023-01-26T05:18:50;0.70;99.90
6110;DHT22;3085;49.444;11.054;2023-01-26T05:21:16;0.70;99.90
6110;DHT22;3085;49.444;11.054;2023-01-26T05:23:44;0.70;99.90
6110;DHT22;3085;49.444;11.054;2023-01-26T05:26:11;0.80;99.90
6110;DHT22;3085;49.444;11.054;2023-01-26T05:28:38;0.60;99.90
6110;DHT22;3085;49.444;11.054;2023-01-26T05:31:05;0.70;99.90
6110;DHT22;3085;49.444;11.054;2023-01-26T05:33:32;0.80;99.90
6110;DHT22;3085;49.444;11.054;2023-01-26T05:36:03;0.70;99.90
6110;DHT22;3085;49.444;11.054;2023-01-26T05:38:30;0.80;99.90
6110;DHT22;3085;49.444;11.054;2023-01-26T05:40:58;0.80;99.90
6110;DHT22;3085;49.444;11.054;2023-01-26T05:43:25;0.80;99.90
6110;DHT22;3085;49.444;11.054;2023-01-26T05:45:52;0.70;99.90
6110;DHT22;3085;49.444;11.054;2023-01-26T05:48:19;0.70;99.90
6110;DHT22;3085;49.444;11.054;2023-01-26T05:50:46;0.70;99.90
6110;DHT22;3085;49.444;11.054;2023-01-26T05:53:12;0.70;99.90
6110;DHT22;3085;49.444;11.054;2023-01-26T05:55:39;0.70;99.90
6110;DHT22;3085;49.444;11.054;2023-01-26T05:58:07;0.50;99.90
6110;DHT22;3085;49.444;11.054;2023-01-26T06:00:34;0.50;99.90
6110;DHT22;3085;49.444;11.054;2023-01-26T06:03:01;0.50;99.90
6110;DHT22;3085;49.444;11.054;2023-01-26T06:05:28;0.50;99.90
6110;DHT22;3085;49.444;11.054;2023-01-26T06:07:54;0.60;99.90
6110;DHT22;3085;49.444;11.054;2023-01-26T06:10:21;0.60;99.90
6110;DHT22;3085;49.444;11.054;2023-01-26T06:12:48;0.60;99.90
6110;DHT22;3085;49.444;11.054;2023-01-26T06:15:16;0.70;99.90
6110;DHT22;3085;49.444;11.054;2023-01-26T06:17:43;0.70;99.90
6110;DHT22;3085;49.444;11.054;2023-01-26T06:20:10;0.70;99.90
6110;DHT22;3085;49.444;11.054;2023-01-26T06:22:39;0.70;99.90
6110;DHT22;3085;49.444;11.054;2023-01-26T06:25:06;0.70;99.90
6110;DHT22;3085;49.444;11.054;2023-01-26T06:27:33;0.70;99.90
6110;DHT22;3085;49.444;11.054;2023-01-26T06:30:07;0.70;99.90
6110;DHT22;3085;49.444;11.054;2023-01-26T06:32:36;0.80;99.90
6110;DHT22;3085;49.444;11.054;2023-01-26T06:35:03;0.70;99.90
6110;DHT22;3085;49.444;11.054;2023-01-26T06:37:33;0.70;99.90
6110;DHT22;3085;49.444;11.054;2023-01-26T06:39:59;0.60;99.90
6110;DHT22;3085;49.444;11.054;2023-01-26T06:42:26;0.60;99.90
6110;DHT22;3085;49.444;11.054;2023-01-26T06:44:53;0.60;99.90
6110;DHT22;3085;49.444;11.054;2023-01-26T06:47:21;0.50;99.90
6110;DHT22;3085;49.444;11.054;2023-01-26T06:49:50;0.60;99.90
6110;DHT22;3085;49.444;11.054;2023-01-26T06:52:29;0.60;99.90
6110;DHT22;3085;49.444;11.054;2023-01-26T06:54:58;0.60;99.90
6110;DHT22;3085;49.444;11.054;2023-01-26T06:57:25;0.60;99.90
6110;DHT22;3085;49.444;11.054;2023-01-26T06:59:52;0.60;99.90
6110;DHT22;3085;49.444;11.054;2023-01-26T07:02:20;0.70;99.90
6110;DHT22;3085;49.444;11.054;2023-01-26T07:04:47;0.70;99.90
6110;DHT22;3085;49.444;11.054;2023-01-26T07:07:16;0.80;99.90
6110;DHT22;3085;49.444;11.054;2023-01-26T07:09:43;0.80;99.90
6110;DHT22;3085;49.444;11.054;2023-01-26T07:12:10;0.60;99.90
6110;DHT22;3085;49.444;11.054;2023-01-26T07:14:36;0.60;99.90
6110;DHT22;3085;49.444;11.054;2023-01-26T07:17:03;0.60;99.90
6110;DHT22;3085;49.444;11.054;2023-01-26T07:19:30;0.60;99.90
6110;DHT22;3085;49.444;11.054;2023-01-26T07:21:58;0.60;99.90
6110;DHT22;3085;49.444;11.054;2023-01-26T07:24:27;0.70;99.90
6110;DHT22;3085;49.444;11.054;2023-01-26T07:26:54;0.70;99.90
6110;DHT22;3085;49.444;11.054;2023-01-26T07:29:21;0.80;99.90
6110;DHT22;3085;49.444;11.054;2023-01-26T07:31:47;0.90;99.90
6110;DHT22;3085;49.444;11.054;2023-01-26T07:34:14;0.70;99.90
6110;DHT22;3085;49.444;11.054;2023-01-26T07:36:41;0.60;99.90
6110;DHT22;3085;49.444;11.054;2023-01-26T07:39:08;0.60;99.90
6110;DHT22;3085;49.444;11.054;2023-01-26T07:41:36;0.60;99.90
6110;DHT22;3085;49.444;11.054;2023-01-26T07:44:03;0.50;99.90
6110;DHT22;3085;49.444;11.054;2023-01-26T07:46:32;0.50;99.90
6110;DHT22;3085;49.444;11.054;2023-01-26T07:48:59;0.70;99.90
6110;DHT22;3085;49.444;11.054;2023-01-26T07:51:26;0.50;99.90
6110;DHT22;3085;49.444;11.054;2023-01-26T07:53:52;0.50;99.90
6110;DHT22;3085;49.444;11.054;2023-01-26T07:56:19;0.50;99.90
6110;DHT22;3085;49.444;11.054;2023-01-26T07:58:51;0.50;99.90
6110;DHT22;3085;49.444;11.054;2023-01-26T08:01:19;0.50;99.90
6110;DHT22;3085;49.444;11.054;2023-01-26T08:03:49;0.50;99.90
6110;DHT22;3085;49.444;11.054;2023-01-26T08:06:16;0.60;99.90
6110;DHT22;3085;49.444;11.054;2023-01-26T08:08:43;0.50;99.90
6110;DHT22;3085;49.444;11.054;2023-01-26T08:11:11;0.60;99.90
6110;DHT22;3085;49.444;11.054;2023-01-26T08:13:38;0.60;99.90
6110;DHT22;3085;49.444;11.054;2023-01-26T08:16:08;0.70;99.90
6110;DHT22;3085;49.444;11.054;2023-01-26T08:18:36;0.70;99.90
6110;DHT22;3085;49.444;11.054;2023-01-26T08:21:04;0.70;99.90
6110;DHT22;3085;49.444;11.054;2023-01-26T08:23:30;0.70;99.90
6110;DHT22;3085;49.444;11.054;2023-01-26T08:25:59;0.80;99.90
6110;DHT22;3085;49.444;11.054;2023-01-26T08:28:26;0.80;99.90
6110;DHT22;3085;49.444;11.054;2023-01-26T08:30:53;0.80;99.90
6110;DHT22;3085;49.444;11.054;2023-01-26T08:33:22;0.70;99.90
6110;DHT22;3085;49.444;11.054;2023-01-26T08:35:48;0.80;99.90
6110;DHT22;3085;49.444;11.054;2023-01-26T08:38:16;0.80;99.90
6110;DHT22;3085;49.444;11.054;2023-01-26T08:40:43;0.90;99.90
6110;DHT22;3085;49.444;11.054;2023-01-26T08:43:09;0.80;99.90
6110;DHT22;3085;49.444;11.054;2023-01-26T08:45:36;0.90;99.90
6110;DHT22;3085;49.444;11.054;2023-01-26T08:48:03;0.90;99.90
6110;DHT22;3085;49.444;11.054;2023-01-26T08:50:32;0.90;99.90
6110;DHT22;3085;49.444;11.054;2023-01-26T08:52:58;0.90;99.90
6110;DHT22;3085;49.444;11.054;2023-01-26T08:55:25;0.90;99.90
6110;DHT22;3085;49.444;11.054;2023-01-26T08:57:53;0.90;99.90
6110;DHT22;3085;49.444;11.054;2023-01-26T09:00:22;0.80;99.90
6110;DHT22;3085;49.444;11.054;2023-01-26T09:02:49;0.90;99.90
6110;DHT22;3085;49.444;11.054;2023-01-26T09:05:16;0.90;99.90
6110;DHT22;3085;49.444;11.054;2023-01-26T09:07:45;1.40;99.90
6110;DHT22;3085;49.444;11.054;2023-01-26T09:10:11;1.20;99.90
6110;DHT22;3085;49.444;11.054;2023-01-26T09:12:38;0.70;99.90
6110;DHT22;3085;49.444;11.054;2023-01-26T09:15:06;0.80;99.90
6110;DHT22;3085;49.444;11.054;2023-01-26T09:17:33;0.80;99.90
6110;DHT22;3085;49.444;11.054;2023-01-26T09:20:00;0.80;99.90
6110;DHT22;3085;49.444;11.054;2023-01-26T09:22:27;0.90;99.90
6110;DHT22;3085;49.444;11.054;2023-01-26T09:24:56;0.90;99.90
6110;DHT22;3085;49.444;11.054;2023-01-26T09:27:23;0.90;99.90
6110;DHT22;3085;49.444;11.054;2023-01-26T09:29:50;1.90;99.90
6110;DHT22;3085;49.444;11.054;2023-01-26T09:32:18;0.40;99.90
6110;DHT22;3085;49.444;11.054;2023-01-26T09:34:45;0.80;99.90
6110;DHT22;3085;49.444;11.054;2023-01-26T09:37:12;0.80;99.90
6110;DHT22;3085;49.444;11.054;2023-01-26T09:39:39;0.90;99.90
6110;DHT22;3085;49.444;11.054;2023-01-26T09:42:33;0.80;99.90
6110;DHT22;3085;49.444;11.054;2023-01-26T09:45:14;0.90;99.90
6110;DHT22;3085;49.444;11.054;2023-01-26T09:47:54;0.70;99.90
6110;DHT22;3085;49.444;11.054;2023-01-26T09:50:27;0.70;99.90
6110;DHT22;3085;49.444;11.054;2023-01-26T09:52:58;0.70;99.90
6110;DHT22;3085;49.444;11.054;2023-01-26T09:55:28;0.70;99.90
6110;DHT22;3085;49.444;11.054;2023-01-26T09:57:59;0.70;99.90
6110;DHT22;3085;49.444;11.054;2023-01-26T10:00:29;0.70;99.90
6110;DHT22;3085;49.444;11.054;2023-01-26T10:03:04;0.50;99.90
6110;DHT22;3085;49.444;11.054;2023-01-26T10:05:40;0.50;99.90
6110;DHT22;3085;49.444;11.054;2023-01-26T10:08:10;0.40;99.90
6110;DHT22;3085;49.444;11.054;2023-01-26T10:10:40;0.30;99.90
6110;DHT22;3085;49.444;11.054;2023-01-26T10:13:12;0.30;99.90
6110;DHT22;3085;49.444;11.054;2023-01-26T10:15:41;0.30;99.90
6110;DHT22;3085;49.444;11.054;2023-01-26T10:18:12;0.30;99.90
6110;DHT22;3085;49.444;11.054;2023-01-26T10:20:45;0.30;99.90
6110;DHT22;3085;49.444;11.054;2023-01-26T10:23:15;0.40;99.90
6110;DHT22;3085;49.444;11.054;2023-01-26T10:25:43;0.40;99.90
6110;DHT22;3085;49.444;11.054;2023-01-26T10:28:15;0.50;99.90
6110;DHT22;3085;49.444;11.054;2023-01-26T10:30:44;0.40;99.90
6110;DHT22;3085;49.444;11.054;2023-01-26T10:33:17;0.50;99.90
6110;DHT22;3085;49.444;11.054;2023-01-26T10:35:44;0.60;99.90
6110;DHT22;3085;49.444;11.054;2023-01-26T10:38:42;0.60;99.90
6110;DHT22;3085;49.444;11.054;2023-01-26T10:41:27;0.50;99.90
6110;DHT22;3085;49.444;11.054;2023-01-26T10:43:57;0.50;99.90
6110;DHT22;3085;49.444;11.054;2023-01-26T10:46:26;0.50;99.90
6110;DHT22;3085;49.444;11.054;2023-01-26T10:48:55;0.50;99.90
6110;DHT22;3085;49.444;11.054;2023-01-26T10:51:25;0.50;99.90
6110;DHT22;3085;49.444;11.054;2023-01-26T10:54:18;0.40;99.90
6110;DHT22;3085;49.444;11.054;2023-01-26T10:56:46;0.30;99.90
6110;DHT22;3085;49.444;11.054;2023-01-26T10:59:23;0.40;99.90
6110;DHT22;3085;49.444;11.054;2023-01-26T11:01:52;0.30;99.90
6110;DHT22;3085;49.444;11.054;2023-01-26T11:04:18;0.20;99.90
6110;DHT22;3085;49.444;11.054;2023-01-26T11:06:46;0.30;99.90
6110;DHT22;3085;49.444;11.054;2023-01-26T11:09:17;0.30;99.90
6110;DHT22;3085;49.444;11.054;2023-01-26T11:11:55;0.30;99.90
6110;DHT22;3085;49.444;11.054;2023-01-26T11:14:23;0.30;99.90
6110;DHT22;3085;49.444;11.054;2023-01-26T11:16:53;0.20;99.90
6110;DHT22;3085;49.444;11.054;2023-01-26T11:19:33;0.30;99.90
6110;DHT22;3085;49.444;11.054;2023-01-26T11:22:05;0.30;99.90
6110;DHT22;3085;49.444;11.054;2023-01-26T11:24:35;0.40;99.90
6110;DHT22;3085;49.444;11.054;2023-01-26T11:27:21;0.40;99.90
6110;DHT22;3085;49.444;11.054;2023-01-26T11:30:22;0.30;99.90
6110;DHT22;3085;49.444;11.054;2023-01-26T11:32:56;0.30;99.90
6110;DHT22;3085;49.444;11.054;2023-01-26T11:35:31;0.30;99.90
6110;DHT22;3085;49.444;11.054;2023-01-26T11:38:12;0.30;99.90
6110;DHT22;3085;49.444;11.054;2023-01-26T11:40:47;0.30;99.90
6110;DHT22;3085;49.444;11.054;2023-01-26T11:43:39;0.40;99.90
6110;DHT22;3085;49.444;11.054;2023-01-26T11:46:26;0.40;99.90
6110;DHT22;3085;49.444;11.054;2023-01-26T11:49:04;0.40;99.90
6110;DHT22;3085;49.444;11.054;2023-01-26T11:51:47;0.30;99.90
6110;DHT22;3085;49.444;11.054;2023-01-26T11:54:35;0.30;99.90
6110;DHT22;3085;49.444;11.054;2023-01-26T11:57:13;0.30;99.90
6110;DHT22;3085;49.444;11.054;2023-01-26T11:59:45;0.30;99.90
6110;DHT22;3085;49.444;11.054;2023-01-26T12:02:24;0.30;99.90
6110;DHT22;3085;49.444;11.054;2023-01-26T12:04:54;1.10;99.90
6110;DHT22;3085;49.444;11.054;2023-01-26T12:07:26;0.40;99.90
6110;DHT22;3085;49.444;11.054;2023-01-26T12:09:55;0.50;99.90
6110;DHT22;3085;49.444;11.054;2023-01-26T12:12:30;0.50;99.90
6110;DHT22;3085;49.444;11.054;2023-01-26T12:15:01;0.40;99.90
6110;DHT22;3085;49.444;11.054;2023-01-26T12:17:38;0.40;99.90
6110;DHT22;3085;49.444;11.054;2023-01-26T12:20:22;0.40;99.90
6110;DHT22;3085;49.444;11.054;2023-01-26T12:22:56;0.30;99.90
6110;DHT22;3085;49.444;11.054;2023-01-26T12:25:29;0.30;99.90
6110;DHT22;3085;49.444;11.054;2023-01-26T12:28:04;0.40;99.90
6110;DHT22;3085;49.444;11.054;2023-01-26T12:30:39;0.40;99.90
6110;DHT22;3085;49.444;11.054;2023-01-26T12:33:09;0.40;99.90
6110;DHT22;3085;49.444;11.054;2023-01-26T12:36:03;0.40;99.90
6110;DHT22;3085;49.444;11.054;2023-01-26T12:38:40;0.50;99.90
6110;DHT22;3085;49.444;11.054;2023-01-26T12:41:13;0.50;99.90
6110;DHT22;3085;49.444;11.054;2023-01-26T12:43:55;0.60;99.90
6110;DHT22;3085;49.444;11.054;2023-01-26T12:46:26;0.50;99.90
6110;DHT22;3085;49.444;11.054;2023-01-26T12:48:58;0.50;99.90
6110;DHT22;3085;49.444;11.054;2023-01-26T12:51:29;0.40;99.90
6110;DHT22;3085;49.444;11.054;2023-01-26T12:54:01;0.40;99.90
6110;DHT22;3085;49.444;11.054;2023-01-26T12:56:32;0.40;99.90
6110;DHT22;3085;49.444;11.054;2023-01-26T12:59:12;0.40;99.90
6110;DHT22;3085;49.444;11.054;2023-01-26T13:01:41;0.40;99.90
6110;DHT22;3085;49.444;11.054;2023-01-26T13:04:11;0.40;99.90
6110;DHT22;3085;49.444;11.054;2023-01-26T13:06:38;0.40;99.90
6110;DHT22;3085;49.444;11.054;2023-01-26T13:09:19;0.40;99.90
6110;DHT22;3085;49.444;11.054;2023-01-26T13:11:48;0.40;99.90
6110;DHT22;3085;49.444;11.054;2023-01-26T13:14:33;0.40;99.90
6110;DHT22;3085;49.444;11.054;2023-01-26T13:20:41;0.30;99.90
6110;DHT22;3085;49.444;11.054;2023-01-26T13:23:35;0.40;99.90
6110;DHT22;3085;49.444;11.054;2023-01-26T13:26:12;0.40;99.90
6110;DHT22;3085;49.444;11.054;2023-01-26T13:28:40;0.50;99.90
6110;DHT22;3085;49.444;11.054;2023-01-26T13:31:09;0.50;99.90
6110;DHT22;3085;49.444;11.054;2023-01-26T13:33:36;0.60;99.90
6110;DHT22;3085;49.444;11.054;2023-01-26T13:36:17;0.40;99.90
6110;DHT22;3085;49.444;11.054;2023-01-26T13:38:52;0.40;99.90
6110;DHT22;3085;49.444;11.054;2023-01-26T13:41:20;0.40;99.90
6110;DHT22;3085;49.444;11.054;2023-01-26T13:43:50;0.40;99.90
6110;DHT22;3085;49.444;11.054;2023-01-26T13:46:23;0.40;99.90
6110;DHT22;3085;49.444;11.054;2023-01-26T13:48:52;0.50;99.90
6110;DHT22;3085;49.444;11.054;2023-01-26T13:51:22;0.60;99.90
6110;DHT22;3085;49.444;11.054;2023-01-26T13:53:56;0.60;99.90
6110;DHT22;3085;49.444;11.054;2023-01-26T13:56:29;0.60;99.90
6110;DHT22;3085;49.444;11.054;2023-01-26T13:59:04;0.50;99.90
6110;DHT22;3085;49.444;11.054;2023-01-26T14:01:31;0.50;99.90
6110;DHT22;3085;49.444;11.054;2023-01-26T14:04:02;0.50;99.90
6110;DHT22;3085;49.444;11.054;2023-01-26T14:06:32;0.50;99.90
6110;DHT22;3085;49.444;11.054;2023-01-26T14:08:59;0.50;99.90
6110;DHT22;3085;49.444;11.054;2023-01-26T14:11:29;0.60;99.90
6110;DHT22;3085;49.444;11.054;2023-01-26T14:13:59;0.60;99.90
6110;DHT22;3085;49.444;11.054;2023-01-26T14:16:29;0.50;99.90
6110;DHT22;3085;49.444;11.054;2023-01-26T14:19:10;0.40;99.90
6110;DHT22;3085;49.444;11.054;2023-01-26T14:21:49;0.40;99.90
6110;DHT22;3085;49.444;11.054;2023-01-26T14:24:17;0.40;99.90
6110;DHT22;3085;49.444;11.054;2023-01-26T14:26:46;0.40;99.90
6110;DHT22;3085;49.444;11.054;2023-01-26T14:29:20;0.30;99.90
6110;DHT22;3085;49.444;11.054;2023-01-26T14:31:48;0.50;99.90
6110;DHT22;3085;49.444;11.054;2023-01-26T14:34:19;0.40;99.90
6110;DHT22;3085;49.444;11.054;2023-01-26T14:36:48;0.50;99.90
6110;DHT22;3085;49.444;11.054;2023-01-26T14:39:29;0.60;99.90
6110;DHT22;3085;49.444;11.054;2023-01-26T14:41:56;0.60;99.90
6110;DHT22;3085;49.444;11.054;2023-01-26T14:44:24;0.70;99.90
6110;DHT22;3085;49.444;11.054;2023-01-26T14:46:56;0.70;99.90
6110;DHT22;3085;49.444;11.054;2023-01-26T14:49:35;0.80;99.90
6110;DHT22;3085;49.444;11.054;2023-01-26T14:52:15;0.80;99.90
6110;DHT22;3085;49.444;11.054;2023-01-26T14:54:43;0.70;99.90
6110;DHT22;3085;49.444;11.054;2023-01-26T14:57:17;0.60;99.90
6110;DHT22;3085;49.444;11.054;2023-01-26T14:59:48;0.40;99.90
6110;DHT22;3085;49.444;11.054;2023-01-26T15:02:17;0.30;99.90
6110;DHT22;3085;49.444;11.054;2023-01-26T15:04:49;0.40;99.90
6110;DHT22;3085;49.444;11.054;2023-01-26T15:07:33;0.50;99.90
6110;DHT22;3085;49.444;11.054;2023-01-26T15:10:02;0.60;99.90
6110;DHT22;3085;49.444;11.054;2023-01-26T15:12:32;0.50;99.90
6110;DHT22;3085;49.444;11.054;2023-01-26T15:15:01;0.50;99.90
6110;DHT22;3085;49.444;11.054;2023-01-26T15:17:29;0.60;99.90
6110;DHT22;3085;49.444;11.054;2023-01-26T15:20:02;0.60;99.90
6110;DHT22;3085;49.444;11.054;2023-01-26T15:22:30;0.60;99.90
6110;DHT22;3085;49.444;11.054;2023-01-26T15:24:59;0.70;99.90
6110;DHT22;3085;49.444;11.054;2023-01-26T15:27:30;0.70;99.90
6110;DHT22;3085;49.444;11.054;2023-01-26T15:29:58;1.10;99.90
6110;DHT22;3085;49.444;11.054;2023-01-26T15:32:31;1.40;99.90
6110;DHT22;3085;49.444;11.054;2023-01-26T15:35:17;0.70;99.90
6110;DHT22;3085;49.444;11.054;2023-01-26T15:37:46;0.80;99.90
6110;DHT22;3085;49.444;11.054;2023-01-26T15:40:13;0.80;99.90
6110;DHT22;3085;49.444;11.054;2023-01-26T15:42:40;0.80;99.90
6110;DHT22;3085;49.444;11.054;2023-01-26T15:45:18;0.80;99.90
6110;DHT22;3085;49.444;11.054;2023-01-26T15:47:47;0.70;99.90
6110;DHT22;3085;49.444;11.054;2023-01-26T15:50:14;0.60;99.90
6110;DHT22;3085;49.444;11.054;2023-01-26T15:52:41;0.50;99.90
6110;DHT22;3085;49.444;11.054;2023-01-26T15:55:19;0.50;99.90
6110;DHT22;3085;49.444;11.054;2023-01-26T15:57:47;0.40;99.90
6110;DHT22;3085;49.444;11.054;2023-01-26T16:00:14;0.40;99.90
6110;DHT22;3085;49.444;11.054;2023-01-26T16:02:42;0.50;99.90
6110;DHT22;3085;49.444;11.054;2023-01-26T16:05:13;0.50;99.90
6110;DHT22;3085;49.444;11.054;2023-01-26T16:07:40;0.40;99.90
6110;DHT22;3085;49.444;11.054;2023-01-26T16:10:08;0.30;99.90
6110;DHT22;3085;49.444;11.054;2023-01-26T16:12:36;0.40;99.90
6110;DHT22;3085;49.444;11.054;2023-01-26T16:15:20;0.40;99.90
6110;DHT22;3085;49.444;11.054;2023-01-26T16:17:48;0.50;99.90
6110;DHT22;3085;49.444;11.054;2023-01-26T16:20:16;0.40;99.90
6110;DHT22;3085;49.444;11.054;2023-01-26T16:22:43;0.40;99.90
6110;DHT22;3085;49.444;11.054;2023-01-26T16:25:18;0.30;99.90
6110;DHT22;3085;49.444;11.054;2023-01-26T16:27:47;0.40;99.90